Terminal Aerodrome Forecast
Issued by NWS

Home | Current Version | Previous Version | Text Only | Print | Product List | Glossary On
Versions: 1 2 3 4 5 6 7 8 9 10 11 12 13 14 15 16 17 18 19 20 21
000
FTUS45 KBOI 242358 AAA
TAFTWF
TAF AMD
KTWF 242358Z 2500/2524 26013KT P6SM VCTS BKN100CB BKN150
     FM250500 19008KT P6SM BKN070 OVC090
     FM250900 18007KT P6SM -RA OVC040
     FM252100 26013G23KT P6SM VCTS SCT050CB BKN100=

USA.gov is the U.S. government's official web portal to all federal, state and local government web resources and services.